sensor_id;sensor_type;location;lat;lon;timestamp;P1;durP1;ratioP1;P2;durP2;ratioP2
22557;SDS011;11445;53.816;8.902;2023-04-29T00:01:22;21.85;;;13.00;;
22557;SDS011;11445;53.816;8.902;2023-04-29T00:03:49;23.13;;;13.30;;
22557;SDS011;11445;53.816;8.902;2023-04-29T00:06:17;29.63;;;13.38;;
22557;SDS011;11445;53.816;8.902;2023-04-29T00:08:44;23.67;;;13.20;;
22557;SDS011;11445;53.816;8.902;2023-04-29T00:11:12;22.67;;;13.30;;
22557;SDS011;11445;53.816;8.902;2023-04-29T00:13:39;27.17;;;13.35;;
22557;SDS011;11445;53.816;8.902;2023-04-29T00:16:06;17.25;;;12.50;;
22557;SDS011;11445;53.816;8.902;2023-04-29T00:18:34;22.27;;;12.48;;
22557;SDS011;11445;53.816;8.902;2023-04-29T00:21:01;25.45;;;13.40;;
22557;SDS011;11445;53.816;8.902;2023-04-29T00:23:30;24.65;;;13.70;;
22557;SDS011;11445;53.816;8.902;2023-04-29T00:25:57;24.02;;;13.73;;
22557;SDS011;11445;53.816;8.902;2023-04-29T00:28:27;23.42;;;13.27;;
22557;SDS011;11445;53.816;8.902;2023-04-29T00:30:54;24.83;;;13.73;;
22557;SDS011;11445;53.816;8.902;2023-04-29T00:33:21;30.40;;;14.50;;
22557;SDS011;11445;53.816;8.902;2023-04-29T00:35:48;22.90;;;13.48;;
22557;SDS011;11445;53.816;8.902;2023-04-29T00:38:15;23.05;;;14.00;;
22557;SDS011;11445;53.816;8.902;2023-04-29T00:40:43;26.58;;;13.80;;
22557;SDS011;11445;53.816;8.902;2023-04-29T00:43:10;28.20;;;14.43;;
22557;SDS011;11445;53.816;8.902;2023-04-29T00:45:39;25.63;;;14.95;;
22557;SDS011;11445;53.816;8.902;2023-04-29T00:48:06;24.45;;;14.00;;
22557;SDS011;11445;53.816;8.902;2023-04-29T00:50:33;25.45;;;14.65;;
22557;SDS011;11445;53.816;8.902;2023-04-29T00:53:00;27.05;;;14.98;;
22557;SDS011;11445;53.816;8.902;2023-04-29T00:55:28;30.23;;;14.95;;
22557;SDS011;11445;53.816;8.902;2023-04-29T00:57:56;23.92;;;14.70;;
22557;SDS011;11445;53.816;8.902;2023-04-29T01:00:23;28.60;;;15.40;;
22557;SDS011;11445;53.816;8.902;2023-04-29T01:02:52;24.45;;;14.68;;
22557;SDS011;11445;53.816;8.902;2023-04-29T01:05:21;29.88;;;15.65;;
22557;SDS011;11445;53.816;8.902;2023-04-29T01:07:51;23.73;;;14.82;;
22557;SDS011;11445;53.816;8.902;2023-04-29T01:10:26;25.05;;;14.88;;
22557;SDS011;11445;53.816;8.902;2023-04-29T01:12:57;27.60;;;15.20;;
22557;SDS011;11445;53.816;8.902;2023-04-29T01:15:29;26.77;;;14.88;;
22557;SDS011;11445;53.816;8.902;2023-04-29T01:18:04;26.35;;;15.07;;
22557;SDS011;11445;53.816;8.902;2023-04-29T01:20:33;27.73;;;15.07;;
22557;SDS011;11445;53.816;8.902;2023-04-29T01:23:01;26.98;;;15.63;;
22557;SDS011;11445;53.816;8.902;2023-04-29T01:25:30;26.85;;;14.23;;
22557;SDS011;11445;53.816;8.902;2023-04-29T01:28:01;24.77;;;14.45;;
22557;SDS011;11445;53.816;8.902;2023-04-29T01:30:37;30.02;;;15.32;;
22557;SDS011;11445;53.816;8.902;2023-04-29T01:33:12;27.75;;;14.88;;
22557;SDS011;11445;53.816;8.902;2023-04-29T01:35:49;25.13;;;14.70;;
22557;SDS011;11445;53.816;8.902;2023-04-29T01:38:29;24.52;;;13.80;;
22557;SDS011;11445;53.816;8.902;2023-04-29T01:41:05;24.77;;;14.30;;
22557;SDS011;11445;53.816;8.902;2023-04-29T01:43:38;28.73;;;15.15;;
22557;SDS011;11445;53.816;8.902;2023-04-29T01:46:08;27.83;;;14.48;;
22557;SDS011;11445;53.816;8.902;2023-04-29T01:48:36;24.38;;;14.13;;
22557;SDS011;11445;53.816;8.902;2023-04-29T01:51:03;24.40;;;14.02;;
22557;SDS011;11445;53.816;8.902;2023-04-29T01:53:31;23.60;;;13.68;;
22557;SDS011;11445;53.816;8.902;2023-04-29T01:55:58;25.10;;;13.52;;
22557;SDS011;11445;53.816;8.902;2023-04-29T01:58:26;31.05;;;14.88;;
22557;SDS011;11445;53.816;8.902;2023-04-29T02:00:53;28.48;;;14.38;;
22557;SDS011;11445;53.816;8.902;2023-04-29T02:03:21;25.73;;;13.05;;
22557;SDS011;11445;53.816;8.902;2023-04-29T02:05:48;25.48;;;13.48;;
22557;SDS011;11445;53.816;8.902;2023-04-29T02:08:15;24.92;;;13.73;;
22557;SDS011;11445;53.816;8.902;2023-04-29T02:10:50;23.45;;;13.98;;
22557;SDS011;11445;53.816;8.902;2023-04-29T02:13:18;29.20;;;13.90;;
22557;SDS011;11445;53.816;8.902;2023-04-29T02:15:46;29.33;;;14.75;;
22557;SDS011;11445;53.816;8.902;2023-04-29T02:18:13;23.90;;;13.68;;
22557;SDS011;11445;53.816;8.902;2023-04-29T02:20:41;22.77;;;13.32;;
22557;SDS011;11445;53.816;8.902;2023-04-29T02:23:08;22.85;;;13.77;;
22557;SDS011;11445;53.816;8.902;2023-04-29T02:25:35;23.98;;;13.32;;
22557;SDS011;11445;53.816;8.902;2023-04-29T02:28:02;24.95;;;13.57;;
22557;SDS011;11445;53.816;8.902;2023-04-29T02:30:29;26.95;;;13.85;;
22557;SDS011;11445;53.816;8.902;2023-04-29T02:32:57;25.13;;;14.05;;
22557;SDS011;11445;53.816;8.902;2023-04-29T02:35:24;26.42;;;15.00;;
22557;SDS011;11445;53.816;8.902;2023-04-29T02:37:51;27.10;;;14.45;;
22557;SDS011;11445;53.816;8.902;2023-04-29T02:40:18;24.30;;;13.52;;
22557;SDS011;11445;53.816;8.902;2023-04-29T02:42:46;27.73;;;14.55;;
22557;SDS011;11445;53.816;8.902;2023-04-29T02:45:13;24.15;;;14.00;;
22557;SDS011;11445;53.816;8.902;2023-04-29T02:47:40;35.28;;;14.15;;
22557;SDS011;11445;53.816;8.902;2023-04-29T02:50:09;23.33;;;14.23;;
22557;SDS011;11445;53.816;8.902;2023-04-29T02:52:36;24.80;;;14.25;;
22557;SDS011;11445;53.816;8.902;2023-04-29T02:55:06;27.10;;;13.25;;
22557;SDS011;11445;53.816;8.902;2023-04-29T02:57:33;25.55;;;14.40;;
22557;SDS011;11445;53.816;8.902;2023-04-29T03:00:00;26.17;;;14.50;;
22557;SDS011;11445;53.816;8.902;2023-04-29T03:02:28;29.45;;;15.15;;
22557;SDS011;11445;53.816;8.902;2023-04-29T03:04:55;28.20;;;14.45;;
22557;SDS011;11445;53.816;8.902;2023-04-29T03:07:23;25.65;;;14.18;;
22557;SDS011;11445;53.816;8.902;2023-04-29T03:09:50;27.48;;;14.77;;
22557;SDS011;11445;53.816;8.902;2023-04-29T03:12:17;26.02;;;14.85;;
22557;SDS011;11445;53.816;8.902;2023-04-29T03:14:44;30.42;;;15.13;;
22557;SDS011;11445;53.816;8.902;2023-04-29T03:17:11;23.63;;;14.55;;
22557;SDS011;11445;53.816;8.902;2023-04-29T03:19:38;29.67;;;13.95;;
22557;SDS011;11445;53.816;8.902;2023-04-29T03:22:05;28.67;;;15.05;;
22557;SDS011;11445;53.816;8.902;2023-04-29T03:24:36;29.52;;;14.63;;
22557;SDS011;11445;53.816;8.902;2023-04-29T03:27:03;28.20;;;14.40;;
22557;SDS011;11445;53.816;8.902;2023-04-29T03:29:30;26.67;;;14.25;;
22557;SDS011;11445;53.816;8.902;2023-04-29T03:31:57;27.90;;;14.43;;
22557;SDS011;11445;53.816;8.902;2023-04-29T03:34:24;27.27;;;13.65;;
22557;SDS011;11445;53.816;8.902;2023-04-29T03:36:51;31.83;;;14.07;;
22557;SDS011;11445;53.816;8.902;2023-04-29T03:39:19;27.02;;;14.40;;
22557;SDS011;11445;53.816;8.902;2023-04-29T03:41:47;26.20;;;13.05;;
22557;SDS011;11445;53.816;8.902;2023-04-29T03:44:14;24.83;;;13.95;;
22557;SDS011;11445;53.816;8.902;2023-04-29T03:46:41;29.58;;;13.65;;
22557;SDS011;11445;53.816;8.902;2023-04-29T03:49:08;23.80;;;13.63;;
22557;SDS011;11445;53.816;8.902;2023-04-29T03:51:35;27.45;;;13.95;;
22557;SDS011;11445;53.816;8.902;2023-04-29T03:54:02;24.48;;;13.77;;
22557;SDS011;11445;53.816;8.902;2023-04-29T03:56:30;24.83;;;13.80;;
22557;SDS011;11445;53.816;8.902;2023-04-29T03:58:58;27.42;;;13.70;;
22557;SDS011;11445;53.816;8.902;2023-04-29T04:01:25;29.48;;;13.75;;
22557;SDS011;11445;53.816;8.902;2023-04-29T04:03:52;29.38;;;13.73;;
22557;SDS011;11445;53.816;8.902;2023-04-29T04:06:19;23.13;;;13.88;;
22557;SDS011;11445;53.816;8.902;2023-04-29T04:08:46;21.38;;;13.30;;
22557;SDS011;11445;53.816;8.902;2023-04-29T04:11:13;26.05;;;14.10;;
22557;SDS011;11445;53.816;8.902;2023-04-29T04:13:40;26.00;;;13.73;;
22557;SDS011;11445;53.816;8.902;2023-04-29T04:16:09;30.38;;;14.30;;
22557;SDS011;11445;53.816;8.902;2023-04-29T04:18:36;28.35;;;14.43;;
22557;SDS011;11445;53.816;8.902;2023-04-29T04:21:04;31.20;;;14.90;;
22557;SDS011;11445;53.816;8.902;2023-04-29T04:23:31;28.75;;;14.82;;
22557;SDS011;11445;53.816;8.902;2023-04-29T04:25:58;28.38;;;14.55;;
22557;SDS011;11445;53.816;8.902;2023-04-29T04:28:25;32.45;;;16.35;;
22557;SDS011;11445;53.816;8.902;2023-04-29T04:30:52;31.17;;;15.25;;
22557;SDS011;11445;53.816;8.902;2023-04-29T04:33:21;32.00;;;15.68;;
22557;SDS011;11445;53.816;8.902;2023-04-29T04:35:48;28.67;;;14.40;;
22557;SDS011;11445;53.816;8.902;2023-04-29T04:38:15;32.40;;;15.95;;
22557;SDS011;11445;53.816;8.902;2023-04-29T04:40:42;30.88;;;15.48;;
22557;SDS011;11445;53.816;8.902;2023-04-29T04:43:10;27.40;;;15.07;;
22557;SDS011;11445;53.816;8.902;2023-04-29T04:45:37;30.52;;;15.48;;
22557;SDS011;11445;53.816;8.902;2023-04-29T04:48:04;28.50;;;14.90;;
22557;SDS011;11445;53.816;8.902;2023-04-29T04:50:32;25.58;;;14.20;;
22557;SDS011;11445;53.816;8.902;2023-04-29T04:52:59;27.13;;;15.25;;
22557;SDS011;11445;53.816;8.902;2023-04-29T04:55:27;27.77;;;14.27;;
22557;SDS011;11445;53.816;8.902;2023-04-29T04:57:55;28.00;;;15.10;;
22557;SDS011;11445;53.816;8.902;2023-04-29T05:00:22;31.50;;;15.00;;
22557;SDS011;11445;53.816;8.902;2023-04-29T05:02:49;32.40;;;15.57;;
22557;SDS011;11445;53.816;8.902;2023-04-29T05:05:17;33.47;;;14.52;;
22557;SDS011;11445;53.816;8.902;2023-04-29T05:07:45;31.98;;;15.95;;
22557;SDS011;11445;53.816;8.902;2023-04-29T05:10:12;31.52;;;14.48;;
22557;SDS011;11445;53.816;8.902;2023-04-29T05:12:39;26.17;;;14.00;;
22557;SDS011;11445;53.816;8.902;2023-04-29T05:15:07;32.53;;;15.27;;
22557;SDS011;11445;53.816;8.902;2023-04-29T05:17:34;28.15;;;15.38;;
22557;SDS011;11445;53.816;8.902;2023-04-29T05:20:01;27.30;;;15.70;;
22557;SDS011;11445;53.816;8.902;2023-04-29T05:22:29;32.20;;;14.82;;
22557;SDS011;11445;53.816;8.902;2023-04-29T05:24:58;25.90;;;14.40;;
22557;SDS011;11445;53.816;8.902;2023-04-29T05:27:27;27.15;;;14.23;;
22557;SDS011;11445;53.816;8.902;2023-04-29T05:29:54;26.30;;;14.43;;
22557;SDS011;11445;53.816;8.902;2023-04-29T05:32:22;26.80;;;14.85;;
22557;SDS011;11445;53.816;8.902;2023-04-29T05:34:49;25.38;;;14.25;;
22557;SDS011;11445;53.816;8.902;2023-04-29T05:37:16;22.58;;;13.95;;
22557;SDS011;11445;53.816;8.902;2023-04-29T05:39:43;27.80;;;13.98;;
22557;SDS011;11445;53.816;8.902;2023-04-29T05:42:11;27.40;;;13.40;;
22557;SDS011;11445;53.816;8.902;2023-04-29T05:44:38;27.23;;;13.43;;
22557;SDS011;11445;53.816;8.902;2023-04-29T05:47:05;32.33;;;13.13;;
22557;SDS011;11445;53.816;8.902;2023-04-29T05:49:33;25.08;;;13.18;;
22557;SDS011;11445;53.816;8.902;2023-04-29T05:52:00;28.92;;;12.85;;
22557;SDS011;11445;53.816;8.902;2023-04-29T05:54:30;24.02;;;11.68;;
22557;SDS011;11445;53.816;8.902;2023-04-29T05:56:57;26.13;;;12.35;;
22557;SDS011;11445;53.816;8.902;2023-04-29T05:59:28;21.08;;;11.80;;
22557;SDS011;11445;53.816;8.902;2023-04-29T06:01:55;23.90;;;12.57;;
22557;SDS011;11445;53.816;8.902;2023-04-29T06:04:23;24.00;;;10.68;;
22557;SDS011;11445;53.816;8.902;2023-04-29T06:06:50;24.80;;;12.48;;
22557;SDS011;11445;53.816;8.902;2023-04-29T06:09:17;22.00;;;11.35;;
22557;SDS011;11445;53.816;8.902;2023-04-29T06:11:45;20.40;;;11.45;;
22557;SDS011;11445;53.816;8.902;2023-04-29T06:14:12;21.00;;;12.15;;
22557;SDS011;11445;53.816;8.902;2023-04-29T06:16:41;24.30;;;12.20;;
22557;SDS011;11445;53.816;8.902;2023-04-29T06:19:08;18.25;;;10.48;;
22557;SDS011;11445;53.816;8.902;2023-04-29T06:21:35;19.48;;;12.13;;
22557;SDS011;11445;53.816;8.902;2023-04-29T06:24:02;21.25;;;11.15;;
22557;SDS011;11445;53.816;8.902;2023-04-29T06:26:29;19.70;;;11.60;;
22557;SDS011;11445;53.816;8.902;2023-04-29T06:28:56;20.92;;;11.75;;
22557;SDS011;11445;53.816;8.902;2023-04-29T06:31:23;19.27;;;11.30;;
22557;SDS011;11445;53.816;8.902;2023-04-29T06:33:52;21.77;;;11.15;;
22557;SDS011;11445;53.816;8.902;2023-04-29T06:36:19;19.67;;;10.93;;
22557;SDS011;11445;53.816;8.902;2023-04-29T06:38:46;20.40;;;11.32;;
22557;SDS011;11445;53.816;8.902;2023-04-29T06:41:13;23.45;;;13.10;;
22557;SDS011;11445;53.816;8.902;2023-04-29T06:43:40;21.05;;;11.23;;
22557;SDS011;11445;53.816;8.902;2023-04-29T06:46:08;20.67;;;11.63;;
22557;SDS011;11445;53.816;8.902;2023-04-29T06:48:35;22.23;;;10.75;;
22557;SDS011;11445;53.816;8.902;2023-04-29T06:51:03;21.80;;;11.30;;
22557;SDS011;11445;53.816;8.902;2023-04-29T06:53:31;24.27;;;11.68;;
22557;SDS011;11445;53.816;8.902;2023-04-29T06:55:58;18.70;;;11.43;;
22557;SDS011;11445;53.816;8.902;2023-04-29T06:58:25;20.27;;;11.27;;
22557;SDS011;11445;53.816;8.902;2023-04-29T07:00:52;21.40;;;11.05;;
22557;SDS011;11445;53.816;8.902;2023-04-29T07:03:19;22.35;;;11.75;;
22557;SDS011;11445;53.816;8.902;2023-04-29T07:05:46;23.52;;;11.93;;
22557;SDS011;11445;53.816;8.902;2023-04-29T07:08:14;20.27;;;12.45;;
22557;SDS011;11445;53.816;8.902;2023-04-29T07:10:41;22.38;;;11.57;;
22557;SDS011;11445;53.816;8.902;2023-04-29T07:13:08;25.52;;;11.77;;
22557;SDS011;11445;53.816;8.902;2023-04-29T07:15:35;21.33;;;11.32;;
22557;SDS011;11445;53.816;8.902;2023-04-29T07:18:03;20.83;;;10.90;;
22557;SDS011;11445;53.816;8.902;2023-04-29T07:20:30;23.33;;;10.98;;
22557;SDS011;11445;53.816;8.902;2023-04-29T07:22:57;17.17;;;10.80;;
22557;SDS011;11445;53.816;8.902;2023-04-29T07:25:26;21.77;;;11.68;;
22557;SDS011;11445;53.816;8.902;2023-04-29T07:27:54;23.45;;;11.10;;
22557;SDS011;11445;53.816;8.902;2023-04-29T07:30:21;17.50;;;10.60;;
22557;SDS011;11445;53.816;8.902;2023-04-29T07:32:49;19.98;;;11.43;;
22557;SDS011;11445;53.816;8.902;2023-04-29T07:35:16;18.48;;;10.27;;
22557;SDS011;11445;53.816;8.902;2023-04-29T07:37:43;22.23;;;10.80;;
22557;SDS011;11445;53.816;8.902;2023-04-29T07:40:11;19.52;;;10.90;;
22557;SDS011;11445;53.816;8.902;2023-04-29T07:42:39;21.25;;;10.77;;
22557;SDS011;11445;53.816;8.902;2023-04-29T07:45:06;17.27;;;10.35;;
22557;SDS011;11445;53.816;8.902;2023-04-29T07:47:34;19.30;;;11.30;;
22557;SDS011;11445;53.816;8.902;2023-04-29T07:50:01;15.95;;;9.30;;
22557;SDS011;11445;53.816;8.902;2023-04-29T07:52:29;18.73;;;9.57;;
22557;SDS011;11445;53.816;8.902;2023-04-29T07:54:56;16.00;;;9.15;;
22557;SDS011;11445;53.816;8.902;2023-04-29T07:57:23;19.33;;;9.27;;
22557;SDS011;11445;53.816;8.902;2023-04-29T07:59:52;22.05;;;9.00;;
22557;SDS011;11445;53.816;8.902;2023-04-29T08:02:19;16.88;;;9.32;;
22557;SDS011;11445;53.816;8.902;2023-04-29T08:04:47;15.85;;;9.25;;
22557;SDS011;11445;53.816;8.902;2023-04-29T08:07:15;14.95;;;8.90;;
22557;SDS011;11445;53.816;8.902;2023-04-29T08:09:41;15.25;;;8.80;;
22557;SDS011;11445;53.816;8.902;2023-04-29T08:12:09;15.85;;;9.23;;
22557;SDS011;11445;53.816;8.902;2023-04-29T08:14:36;19.88;;;9.82;;
22557;SDS011;11445;53.816;8.902;2023-04-29T08:17:04;16.55;;;8.70;;
22557;SDS011;11445;53.816;8.902;2023-04-29T08:19:32;20.15;;;9.65;;
22557;SDS011;11445;53.816;8.902;2023-04-29T08:21:59;20.55;;;8.60;;
22557;SDS011;11445;53.816;8.902;2023-04-29T08:24:28;20.38;;;9.10;;
22557;SDS011;11445;53.816;8.902;2023-04-29T08:26:55;16.33;;;8.85;;
22557;SDS011;11445;53.816;8.902;2023-04-29T08:29:23;21.20;;;9.50;;
22557;SDS011;11445;53.816;8.902;2023-04-29T08:31:50;16.80;;;9.10;;
22557;SDS011;11445;53.816;8.902;2023-04-29T08:34:18;17.27;;;9.00;;
22557;SDS011;11445;53.816;8.902;2023-04-29T08:36:45;17.10;;;9.32;;
22557;SDS011;11445;53.816;8.902;2023-04-29T08:39:13;18.70;;;10.02;;
22557;SDS011;11445;53.816;8.902;2023-04-29T08:41:40;17.65;;;9.70;;
22557;SDS011;11445;53.816;8.902;2023-04-29T08:44:09;19.00;;;9.88;;
22557;SDS011;11445;53.816;8.902;2023-04-29T08:46:37;17.13;;;9.35;;
22557;SDS011;11445;53.816;8.902;2023-04-29T08:49:04;20.52;;;10.13;;
22557;SDS011;11445;53.816;8.902;2023-04-29T08:51:33;16.15;;;9.93;;
22557;SDS011;11445;53.816;8.902;2023-04-29T08:54:00;16.77;;;10.50;;
22557;SDS011;11445;53.816;8.902;2023-04-29T08:56:27;16.60;;;10.00;;
22557;SDS011;11445;53.816;8.902;2023-04-29T08:58:56;22.52;;;11.10;;
22557;SDS011;11445;53.816;8.902;2023-04-29T09:01:25;16.90;;;10.65;;
22557;SDS011;11445;53.816;8.902;2023-04-29T09:03:55;22.02;;;11.18;;
22557;SDS011;11445;53.816;8.902;2023-04-29T09:06:30;23.08;;;11.07;;
22557;SDS011;11445;53.816;8.902;2023-04-29T09:08:59;25.35;;;12.10;;
22557;SDS011;11445;53.816;8.902;2023-04-29T09:11:28;19.60;;;11.00;;
22557;SDS011;11445;53.816;8.902;2023-04-29T09:13:57;21.10;;;11.27;;
22557;SDS011;11445;53.816;8.902;2023-04-29T09:16:26;22.48;;;11.20;;
22557;SDS011;11445;53.816;8.902;2023-04-29T09:18:53;26.98;;;11.55;;
22557;SDS011;11445;53.816;8.902;2023-04-29T09:21:21;18.35;;;9.52;;
22557;SDS011;11445;53.816;8.902;2023-04-29T09:23:50;22.55;;;10.50;;
22557;SDS011;11445;53.816;8.902;2023-04-29T09:26:19;21.33;;;9.60;;
22557;SDS011;11445;53.816;8.902;2023-04-29T09:28:51;18.23;;;9.07;;
22557;SDS011;11445;53.816;8.902;2023-04-29T09:31:32;13.43;;;7.93;;
22557;SDS011;11445;53.816;8.902;2023-04-29T09:33:59;15.93;;;6.85;;
22557;SDS011;11445;53.816;8.902;2023-04-29T09:36:36;11.13;;;6.10;;
22557;SDS011;11445;53.816;8.902;2023-04-29T09:39:09;20.17;;;5.88;;
22557;SDS011;11445;53.816;8.902;2023-04-29T09:41:43;13.13;;;5.20;;
22557;SDS011;11445;53.816;8.902;2023-04-29T09:44:24;16.52;;;4.95;;
22557;SDS011;11445;53.816;8.902;2023-04-29T09:46:56;16.60;;;4.80;;
22557;SDS011;11445;53.816;8.902;2023-04-29T09:49:24;12.27;;;4.57;;
22557;SDS011;11445;53.816;8.902;2023-04-29T09:51:53;10.52;;;4.18;;
22557;SDS011;11445;53.816;8.902;2023-04-29T09:54:22;14.75;;;4.10;;
22557;SDS011;11445;53.816;8.902;2023-04-29T09:56:51;8.15;;;4.32;;
22557;SDS011;11445;53.816;8.902;2023-04-29T09:59:19;6.68;;;4.43;;
22557;SDS011;11445;53.816;8.902;2023-04-29T10:01:47;13.73;;;4.85;;
22557;SDS011;11445;53.816;8.902;2023-04-29T10:04:16;12.73;;;4.72;;
22557;SDS011;11445;53.816;8.902;2023-04-29T10:06:47;12.55;;;4.93;;
22557;SDS011;11445;53.816;8.902;2023-04-29T10:09:16;11.30;;;4.45;;
22557;SDS011;11445;53.816;8.902;2023-04-29T10:11:44;11.63;;;4.80;;
22557;SDS011;11445;53.816;8.902;2023-04-29T10:14:14;9.73;;;4.07;;
22557;SDS011;11445;53.816;8.902;2023-04-29T10:16:44;15.50;;;4.57;;
22557;SDS011;11445;53.816;8.902;2023-04-29T10:19:24;16.33;;;4.13;;
22557;SDS011;11445;53.816;8.902;2023-04-29T10:21:53;12.85;;;5.25;;
22557;SDS011;11445;53.816;8.902;2023-04-29T10:24:21;12.23;;;4.65;;
22557;SDS011;11445;53.816;8.902;2023-04-29T10:26:52;13.23;;;4.70;;
22557;SDS011;11445;53.816;8.902;2023-04-29T10:29:22;10.38;;;4.80;;
22557;SDS011;11445;53.816;8.902;2023-04-29T10:31:53;13.88;;;4.85;;
22557;SDS011;11445;53.816;8.902;2023-04-29T10:34:22;9.48;;;4.75;;
22557;SDS011;11445;53.816;8.902;2023-04-29T10:36:50;14.75;;;4.60;;
22557;SDS011;11445;53.816;8.902;2023-04-29T10:39:20;7.75;;;4.60;;
22557;SDS011;11445;53.816;8.902;2023-04-29T10:41:55;16.92;;;5.60;;
22557;SDS011;11445;53.816;8.902;2023-04-29T10:44:25;12.68;;;5.03;;
22557;SDS011;11445;53.816;8.902;2023-04-29T10:50:00;6.68;;;3.97;;
22557;SDS011;11445;53.816;8.902;2023-04-29T10:52:28;15.23;;;3.53;;
22557;SDS011;11445;53.816;8.902;2023-04-29T10:55:01;7.40;;;3.70;;
22557;SDS011;11445;53.816;8.902;2023-04-29T10:59:57;9.85;;;3.13;;
22557;SDS011;11445;53.816;8.902;2023-04-29T11:02:24;4.97;;;2.25;;
22557;SDS011;11445;53.816;8.902;2023-04-29T11:05:05;10.52;;;3.05;;
22557;SDS011;11445;53.816;8.902;2023-04-29T11:07:33;15.90;;;3.33;;
22557;SDS011;11445;53.816;8.902;2023-04-29T11:10:00;7.28;;;2.67;;
22557;SDS011;11445;53.816;8.902;2023-04-29T11:12:27;8.90;;;2.38;;
22557;SDS011;11445;53.816;8.902;2023-04-29T11:14:56;5.22;;;2.80;;
22557;SDS011;11445;53.816;8.902;2023-04-29T11:17:33;8.73;;;3.22;;
22557;SDS011;11445;53.816;8.902;2023-04-29T11:20:02;8.88;;;2.58;;
22557;SDS011;11445;53.816;8.902;2023-04-29T11:22:34;15.55;;;2.58;;
22557;SDS011;11445;53.816;8.902;2023-04-29T11:25:02;8.40;;;2.80;;
22557;SDS011;11445;53.816;8.902;2023-04-29T11:27:31;7.88;;;2.63;;
22557;SDS011;11445;53.816;8.902;2023-04-29T11:30:01;6.25;;;2.78;;
22557;SDS011;11445;53.816;8.902;2023-04-29T11:32:31;6.10;;;1.98;;
22557;SDS011;11445;53.816;8.902;2023-04-29T11:35:06;7.15;;;2.45;;
22557;SDS011;11445;53.816;8.902;2023-04-29T11:37:34;4.07;;;2.10;;
22557;SDS011;11445;53.816;8.902;2023-04-29T11:40:01;8.00;;;2.40;;
22557;SDS011;11445;53.816;8.902;2023-04-29T11:42:28;6.20;;;2.60;;
22557;SDS011;11445;53.816;8.902;2023-04-29T11:44:56;7.45;;;2.40;;
22557;SDS011;11445;53.816;8.902;2023-04-29T11:47:29;6.80;;;2.53;;
22557;SDS011;11445;53.816;8.902;2023-04-29T11:50:02;6.47;;;2.08;;
22557;SDS011;11445;53.816;8.902;2023-04-29T11:52:30;8.90;;;2.30;;
22557;SDS011;11445;53.816;8.902;2023-04-29T11:54:58;7.20;;;2.40;;
22557;SDS011;11445;53.816;8.902;2023-04-29T11:57:25;9.00;;;2.60;;
22557;SDS011;11445;53.816;8.902;2023-04-29T11:59:52;11.63;;;2.75;;
22557;SDS011;11445;53.816;8.902;2023-04-29T12:02:20;8.95;;;2.75;;
22557;SDS011;11445;53.816;8.902;2023-04-29T12:04:49;6.78;;;2.25;;
22557;SDS011;11445;53.816;8.902;2023-04-29T12:07:16;4.90;;;2.03;;
22557;SDS011;11445;53.816;8.902;2023-04-29T12:09:44;5.75;;;2.13;;
22557;SDS011;11445;53.816;8.902;2023-04-29T12:12:12;9.70;;;2.45;;
22557;SDS011;11445;53.816;8.902;2023-04-29T12:14:41;5.57;;;2.17;;
22557;SDS011;11445;53.816;8.902;2023-04-29T12:17:08;7.45;;;2.33;;
22557;SDS011;11445;53.816;8.902;2023-04-29T12:19:36;7.70;;;2.20;;
22557;SDS011;11445;53.816;8.902;2023-04-29T12:22:07;7.32;;;2.38;;
22557;SDS011;11445;53.816;8.902;2023-04-29T12:24:34;7.80;;;2.45;;
22557;SDS011;11445;53.816;8.902;2023-04-29T12:27:02;7.30;;;2.38;;
22557;SDS011;11445;53.816;8.902;2023-04-29T12:29:30;7.47;;;2.60;;
22557;SDS011;11445;53.816;8.902;2023-04-29T12:31:57;4.68;;;1.95;;
22557;SDS011;11445;53.816;8.902;2023-04-29T12:34:24;6.40;;;2.22;;
22557;SDS011;11445;53.816;8.902;2023-04-29T12:36:53;5.53;;;2.33;;
22557;SDS011;11445;53.816;8.902;2023-04-29T12:39:23;4.63;;;2.17;;
22557;SDS011;11445;53.816;8.902;2023-04-29T12:41:53;4.53;;;2.65;;
22557;SDS011;11445;53.816;8.902;2023-04-29T12:44:21;8.18;;;2.30;;
22557;SDS011;11445;53.816;8.902;2023-04-29T12:46:48;6.90;;;2.38;;
22557;SDS011;11445;53.816;8.902;2023-04-29T12:49:17;7.43;;;2.83;;
22557;SDS011;11445;53.816;8.902;2023-04-29T12:51:44;8.63;;;2.38;;
22557;SDS011;11445;53.816;8.902;2023-04-29T12:54:11;7.03;;;2.92;;
22557;SDS011;11445;53.816;8.902;2023-04-29T12:56:40;11.75;;;3.08;;
22557;SDS011;11445;53.816;8.902;2023-04-29T12:59:07;5.97;;;2.80;;
22557;SDS011;11445;53.816;8.902;2023-04-29T13:01:36;11.75;;;3.03;;
22557;SDS011;11445;53.816;8.902;2023-04-29T13:04:03;14.27;;;3.25;;
22557;SDS011;11445;53.816;8.902;2023-04-29T13:06:32;8.23;;;3.05;;
22557;SDS011;11445;53.816;8.902;2023-04-29T13:09:03;9.25;;;2.60;;
22557;SDS011;11445;53.816;8.902;2023-04-29T13:11:31;8.85;;;2.60;;
22557;SDS011;11445;53.816;8.902;2023-04-29T13:13:59;20.20;;;4.28;;
22557;SDS011;11445;53.816;8.902;2023-04-29T13:16:26;8.63;;;2.83;;
22557;SDS011;11445;53.816;8.902;2023-04-29T13:18:53;4.78;;;2.63;;
22557;SDS011;11445;53.816;8.902;2023-04-29T13:21:21;11.35;;;3.45;;
22557;SDS011;11445;53.816;8.902;2023-04-29T13:23:48;8.95;;;3.50;;
22557;SDS011;11445;53.816;8.902;2023-04-29T13:26:16;8.90;;;3.17;;
22557;SDS011;11445;53.816;8.902;2023-04-29T13:28:43;10.57;;;3.00;;
22557;SDS011;11445;53.816;8.902;2023-04-29T13:31:11;5.72;;;2.28;;
22557;SDS011;11445;53.816;8.902;2023-04-29T13:33:39;8.10;;;2.20;;
22557;SDS011;11445;53.816;8.902;2023-04-29T13:36:07;6.50;;;2.42;;
22557;SDS011;11445;53.816;8.902;2023-04-29T13:38:34;6.80;;;2.38;;
22557;SDS011;11445;53.816;8.902;2023-04-29T13:41:01;5.40;;;2.22;;
22557;SDS011;11445;53.816;8.902;2023-04-29T13:43:28;9.55;;;2.80;;
22557;SDS011;11445;53.816;8.902;2023-04-29T13:45:55;5.40;;;3.10;;
22557;SDS011;11445;53.816;8.902;2023-04-29T13:48:24;7.00;;;2.70;;
22557;SDS011;11445;53.816;8.902;2023-04-29T13:50:51;7.85;;;2.65;;
22557;SDS011;11445;53.816;8.902;2023-04-29T13:53:18;12.57;;;3.20;;
22557;SDS011;11445;53.816;8.902;2023-04-29T13:55:45;5.53;;;2.80;;
22557;SDS011;11445;53.816;8.902;2023-04-29T13:58:12;4.85;;;2.50;;
22557;SDS011;11445;53.816;8.902;2023-04-29T14:00:40;7.22;;;2.88;;
22557;SDS011;11445;53.816;8.902;2023-04-29T14:03:07;10.63;;;3.47;;
22557;SDS011;11445;53.816;8.902;2023-04-29T14:05:35;7.30;;;3.40;;
22557;SDS011;11445;53.816;8.902;2023-04-29T14:08:03;9.55;;;2.92;;
22557;SDS011;11445;53.816;8.902;2023-04-29T14:10:30;6.45;;;2.88;;
22557;SDS011;11445;53.816;8.902;2023-04-29T14:12:57;7.68;;;3.10;;
22557;SDS011;11445;53.816;8.902;2023-04-29T14:15:24;7.82;;;3.03;;
22557;SDS011;11445;53.816;8.902;2023-04-29T14:17:52;14.52;;;3.15;;
22557;SDS011;11445;53.816;8.902;2023-04-29T14:20:19;9.45;;;3.13;;
22557;SDS011;11445;53.816;8.902;2023-04-29T14:22:47;10.98;;;3.10;;
22557;SDS011;11445;53.816;8.902;2023-04-29T14:25:15;10.32;;;3.47;;
22557;SDS011;11445;53.816;8.902;2023-04-29T14:27:42;9.05;;;3.70;;
22557;SDS011;11445;53.816;8.902;2023-04-29T14:30:09;9.60;;;2.92;;
22557;SDS011;11445;53.816;8.902;2023-04-29T14:32:36;7.28;;;2.70;;
22557;SDS011;11445;53.816;8.902;2023-04-29T14:35:04;10.38;;;2.80;;
22557;SDS011;11445;53.816;8.902;2023-04-29T14:37:31;8.57;;;3.40;;
22557;SDS011;11445;53.816;8.902;2023-04-29T14:40:00;9.73;;;3.40;;
22557;SDS011;11445;53.816;8.902;2023-04-29T14:42:28;9.15;;;2.78;;